sensor_id;sensor_type;location;lat;lon;timestamp;P1;durP1;ratioP1;P2;durP2;ratioP2
9900;SDS011;4989;48.772;9.154;2023-12-20T00:00:02;0.90;;;0.90;;
9900;SDS011;4989;48.772;9.154;2023-12-20T00:05:07;1.73;;;1.13;;
9900;SDS011;4989;48.772;9.154;2023-12-20T00:10:09;0.77;;;0.77;;
9900;SDS011;4989;48.772;9.154;2023-12-20T00:15:14;0.77;;;0.77;;
9900;SDS011;4989;48.772;9.154;2023-12-20T00:20:17;1.00;;;1.00;;
9900;SDS011;4989;48.772;9.154;2023-12-20T00:25:19;2.50;;;1.20;;
9900;SDS011;4989;48.772;9.154;2023-12-20T00:30:22;1.00;;;1.00;;
9900;SDS011;4989;48.772;9.154;2023-12-20T00:35:25;0.87;;;0.87;;
9900;SDS011;4989;48.772;9.154;2023-12-20T00:40:27;0.70;;;0.70;;
9900;SDS011;4989;48.772;9.154;2023-12-20T00:45:30;0.77;;;0.77;;
9900;SDS011;4989;48.772;9.154;2023-12-20T00:50:32;1.03;;;0.90;;
9900;SDS011;4989;48.772;9.154;2023-12-20T00:55:35;0.77;;;0.77;;
9900;SDS011;4989;48.772;9.154;2023-12-20T01:00:38;0.70;;;0.70;;
9900;SDS011;4989;48.772;9.154;2023-12-20T01:05:44;0.80;;;0.73;;
9900;SDS011;4989;48.772;9.154;2023-12-20T01:10:47;0.80;;;0.80;;
9900;SDS011;4989;48.772;9.154;2023-12-20T01:15:49;0.90;;;0.90;;
9900;SDS011;4989;48.772;9.154;2023-12-20T01:20:52;0.70;;;0.70;;
9900;SDS011;4989;48.772;9.154;2023-12-20T01:25:55;0.60;;;0.60;;
9900;SDS011;4989;48.772;9.154;2023-12-20T01:30:57;0.60;;;0.60;;
9900;SDS011;4989;48.772;9.154;2023-12-20T01:36:00;0.70;;;0.70;;
9900;SDS011;4989;48.772;9.154;2023-12-20T01:41:03;1.27;;;0.77;;
9900;SDS011;4989;48.772;9.154;2023-12-20T01:46:06;0.93;;;0.93;;
9900;SDS011;4989;48.772;9.154;2023-12-20T01:51:09;0.80;;;0.80;;
9900;SDS011;4989;48.772;9.154;2023-12-20T01:56:12;0.70;;;0.70;;
9900;SDS011;4989;48.772;9.154;2023-12-20T02:01:16;1.90;;;0.90;;
9900;SDS011;4989;48.772;9.154;2023-12-20T02:06:20;0.90;;;0.90;;
9900;SDS011;4989;48.772;9.154;2023-12-20T02:11:25;0.73;;;0.73;;
9900;SDS011;4989;48.772;9.154;2023-12-20T02:16:27;0.90;;;0.90;;
9900;SDS011;4989;48.772;9.154;2023-12-20T02:21:33;1.00;;;0.90;;
9900;SDS011;4989;48.772;9.154;2023-12-20T02:26:37;1.77;;;0.87;;
9900;SDS011;4989;48.772;9.154;2023-12-20T02:31:40;1.37;;;0.90;;
9900;SDS011;4989;48.772;9.154;2023-12-20T02:36:42;0.90;;;0.90;;
9900;SDS011;4989;48.772;9.154;2023-12-20T02:41:45;0.80;;;0.80;;
9900;SDS011;4989;48.772;9.154;2023-12-20T02:46:47;1.33;;;0.90;;
9900;SDS011;4989;48.772;9.154;2023-12-20T02:51:50;1.00;;;1.00;;
9900;SDS011;4989;48.772;9.154;2023-12-20T02:56:53;0.97;;;0.97;;
9900;SDS011;4989;48.772;9.154;2023-12-20T03:01:55;0.77;;;0.77;;
9900;SDS011;4989;48.772;9.154;2023-12-20T03:06:58;0.70;;;0.70;;
9900;SDS011;4989;48.772;9.154;2023-12-20T03:12:01;0.60;;;0.60;;
9900;SDS011;4989;48.772;9.154;2023-12-20T03:17:03;1.03;;;0.70;;
9900;SDS011;4989;48.772;9.154;2023-12-20T03:22:06;1.40;;;1.00;;
9900;SDS011;4989;48.772;9.154;2023-12-20T03:27:09;0.80;;;0.80;;
9900;SDS011;4989;48.772;9.154;2023-12-20T03:32:11;0.70;;;0.70;;
9900;SDS011;4989;48.772;9.154;2023-12-20T03:37:14;0.90;;;0.90;;
9900;SDS011;4989;48.772;9.154;2023-12-20T03:42:17;0.40;;;0.40;;
9900;SDS011;4989;48.772;9.154;2023-12-20T03:47:19;0.83;;;0.40;;
9900;SDS011;4989;48.772;9.154;2023-12-20T03:52:22;0.30;;;0.30;;
9900;SDS011;4989;48.772;9.154;2023-12-20T03:57:25;0.20;;;0.20;;
9900;SDS011;4989;48.772;9.154;2023-12-20T04:02:27;0.20;;;0.20;;
9900;SDS011;4989;48.772;9.154;2023-12-20T04:07:30;0.10;;;0.10;;
9900;SDS011;4989;48.772;9.154;2023-12-20T04:12:33;0.20;;;0.20;;
9900;SDS011;4989;48.772;9.154;2023-12-20T04:17:35;0.20;;;0.20;;
9900;SDS011;4989;48.772;9.154;2023-12-20T04:22:38;0.40;;;0.10;;
9900;SDS011;4989;48.772;9.154;2023-12-20T04:27:41;0.17;;;0.17;;
9900;SDS011;4989;48.772;9.154;2023-12-20T04:32:44;0.17;;;0.17;;
9900;SDS011;4989;48.772;9.154;2023-12-20T04:37:47;0.10;;;0.10;;
9900;SDS011;4989;48.772;9.154;2023-12-20T04:42:51;0.30;;;0.30;;
9900;SDS011;4989;48.772;9.154;2023-12-20T04:47:54;0.20;;;0.20;;
9900;SDS011;4989;48.772;9.154;2023-12-20T04:52:57;0.10;;;0.10;;
9900;SDS011;4989;48.772;9.154;2023-12-20T04:58:00;0.23;;;0.23;;
9900;SDS011;4989;48.772;9.154;2023-12-20T05:03:03;0.23;;;0.23;;
9900;SDS011;4989;48.772;9.154;2023-12-20T05:08:06;0.30;;;0.27;;
9900;SDS011;4989;48.772;9.154;2023-12-20T05:13:09;0.10;;;0.10;;
9900;SDS011;4989;48.772;9.154;2023-12-20T05:18:12;0.13;;;0.13;;
9900;SDS011;4989;48.772;9.154;2023-12-20T05:23:15;0.20;;;0.20;;
9900;SDS011;4989;48.772;9.154;2023-12-20T05:28:18;0.20;;;0.20;;
9900;SDS011;4989;48.772;9.154;2023-12-20T05:33:21;0.20;;;0.20;;
9900;SDS011;4989;48.772;9.154;2023-12-20T05:38:24;0.20;;;0.20;;
9900;SDS011;4989;48.772;9.154;2023-12-20T05:43:26;0.20;;;0.20;;
9900;SDS011;4989;48.772;9.154;2023-12-20T05:48:29;0.10;;;0.10;;
9900;SDS011;4989;48.772;9.154;2023-12-20T05:53:32;0.30;;;0.30;;
9900;SDS011;4989;48.772;9.154;2023-12-20T05:58:34;0.30;;;0.30;;
9900;SDS011;4989;48.772;9.154;2023-12-20T06:03:41;0.30;;;0.30;;
9900;SDS011;4989;48.772;9.154;2023-12-20T06:08:44;0.30;;;0.30;;
9900;SDS011;4989;48.772;9.154;2023-12-20T06:13:47;0.37;;;0.37;;
9900;SDS011;4989;48.772;9.154;2023-12-20T06:18:50;1.30;;;1.30;;
9900;SDS011;4989;48.772;9.154;2023-12-20T06:23:53;0.50;;;0.50;;
9900;SDS011;4989;48.772;9.154;2023-12-20T06:28:56;0.93;;;0.87;;
9900;SDS011;4989;48.772;9.154;2023-12-20T06:33:59;0.63;;;0.63;;
9900;SDS011;4989;48.772;9.154;2023-12-20T06:39:02;0.60;;;0.60;;
9900;SDS011;4989;48.772;9.154;2023-12-20T06:44:06;0.60;;;0.60;;
9900;SDS011;4989;48.772;9.154;2023-12-20T06:49:09;0.70;;;0.70;;
9900;SDS011;4989;48.772;9.154;2023-12-20T06:54:12;1.67;;;1.30;;
9900;SDS011;4989;48.772;9.154;2023-12-20T06:59:14;2.43;;;1.07;;
9900;SDS011;4989;48.772;9.154;2023-12-20T07:04:17;2.13;;;1.50;;
9900;SDS011;4989;48.772;9.154;2023-12-20T07:09:23;1.23;;;0.30;;
9900;SDS011;4989;48.772;9.154;2023-12-20T07:14:26;0.60;;;0.60;;
9900;SDS011;4989;48.772;9.154;2023-12-20T07:19:29;0.40;;;0.40;;
9900;SDS011;4989;48.772;9.154;2023-12-20T07:24:32;0.37;;;0.37;;
9900;SDS011;4989;48.772;9.154;2023-12-20T07:29:35;0.40;;;0.40;;
9900;SDS011;4989;48.772;9.154;2023-12-20T07:34:38;0.47;;;0.47;;
9900;SDS011;4989;48.772;9.154;2023-12-20T07:39:41;0.93;;;0.93;;
9900;SDS011;4989;48.772;9.154;2023-12-20T07:44:44;0.90;;;0.90;;
9900;SDS011;4989;48.772;9.154;2023-12-20T07:49:48;1.60;;;1.30;;
9900;SDS011;4989;48.772;9.154;2023-12-20T07:54:53;3.13;;;1.27;;
9900;SDS011;4989;48.772;9.154;2023-12-20T07:59:59;2.20;;;1.30;;
9900;SDS011;4989;48.772;9.154;2023-12-20T08:05:04;1.67;;;1.20;;
9900;SDS011;4989;48.772;9.154;2023-12-20T08:10:07;4.23;;;1.40;;
9900;SDS011;4989;48.772;9.154;2023-12-20T08:15:10;1.40;;;1.30;;
9900;SDS011;4989;48.772;9.154;2023-12-20T08:20:13;1.40;;;1.30;;
9900;SDS011;4989;48.772;9.154;2023-12-20T08:25:26;1.60;;;1.50;;
9900;SDS011;4989;48.772;9.154;2023-12-20T08:30:30;1.33;;;1.23;;
9900;SDS011;4989;48.772;9.154;2023-12-20T08:35:33;2.23;;;1.43;;
9900;SDS011;4989;48.772;9.154;2023-12-20T08:40:37;1.50;;;1.40;;
9900;SDS011;4989;48.772;9.154;2023-12-20T08:45:40;1.97;;;1.53;;
9900;SDS011;4989;48.772;9.154;2023-12-20T08:50:43;1.20;;;1.10;;
9900;SDS011;4989;48.772;9.154;2023-12-20T08:55:46;1.50;;;1.40;;
9900;SDS011;4989;48.772;9.154;2023-12-20T09:00:49;1.40;;;1.30;;
9900;SDS011;4989;48.772;9.154;2023-12-20T09:05:51;1.80;;;1.60;;
9900;SDS011;4989;48.772;9.154;2023-12-20T09:10:54;1.60;;;1.50;;
9900;SDS011;4989;48.772;9.154;2023-12-20T09:15:57;2.03;;;1.70;;
9900;SDS011;4989;48.772;9.154;2023-12-20T09:21:00;1.60;;;1.50;;
9900;SDS011;4989;48.772;9.154;2023-12-20T09:26:03;2.80;;;1.60;;
9900;SDS011;4989;48.772;9.154;2023-12-20T09:31:06;2.13;;;1.27;;
9900;SDS011;4989;48.772;9.154;2023-12-20T09:36:09;1.90;;;1.53;;
9900;SDS011;4989;48.772;9.154;2023-12-20T09:41:12;2.43;;;1.00;;
9900;SDS011;4989;48.772;9.154;2023-12-20T09:46:14;2.10;;;1.00;;
9900;SDS011;4989;48.772;9.154;2023-12-20T09:51:23;1.33;;;1.00;;
9900;SDS011;4989;48.772;9.154;2023-12-20T09:56:26;1.53;;;1.17;;
9900;SDS011;4989;48.772;9.154;2023-12-20T10:01:30;4.30;;;1.13;;
9900;SDS011;4989;48.772;9.154;2023-12-20T10:06:36;2.10;;;1.10;;
9900;SDS011;4989;48.772;9.154;2023-12-20T10:11:39;0.90;;;0.90;;
9900;SDS011;4989;48.772;9.154;2023-12-20T10:16:42;2.77;;;1.40;;
9900;SDS011;4989;48.772;9.154;2023-12-20T10:21:44;2.33;;;1.07;;
9900;SDS011;4989;48.772;9.154;2023-12-20T10:26:48;1.63;;;0.90;;
9900;SDS011;4989;48.772;9.154;2023-12-20T10:32:21;3.90;;;1.60;;
9900;SDS011;4989;48.772;9.154;2023-12-20T10:37:28;3.03;;;1.20;;
9900;SDS011;4989;48.772;9.154;2023-12-20T10:42:31;2.47;;;1.40;;
9900;SDS011;4989;48.772;9.154;2023-12-20T10:47:37;1.63;;;1.20;;
9900;SDS011;4989;48.772;9.154;2023-12-20T10:52:42;2.43;;;1.03;;
9900;SDS011;4989;48.772;9.154;2023-12-20T10:57:45;2.13;;;1.40;;
9900;SDS011;4989;48.772;9.154;2023-12-20T11:02:52;2.20;;;1.30;;
9900;SDS011;4989;48.772;9.154;2023-12-20T11:07:59;1.40;;;1.30;;
9900;SDS011;4989;48.772;9.154;2023-12-20T11:13:26;1.53;;;1.00;;
9900;SDS011;4989;48.772;9.154;2023-12-20T11:18:36;3.50;;;1.20;;
9900;SDS011;4989;48.772;9.154;2023-12-20T11:23:38;1.30;;;0.90;;
9900;SDS011;4989;48.772;9.154;2023-12-20T11:28:43;3.20;;;1.20;;
9900;SDS011;4989;48.772;9.154;2023-12-20T11:33:46;3.13;;;1.50;;
9900;SDS011;4989;48.772;9.154;2023-12-20T11:38:53;2.10;;;1.20;;
9900;SDS011;4989;48.772;9.154;2023-12-20T11:43:59;2.67;;;1.50;;
9900;SDS011;4989;48.772;9.154;2023-12-20T11:49:02;1.77;;;1.10;;
9900;SDS011;4989;48.772;9.154;2023-12-20T11:54:05;4.07;;;1.37;;
9900;SDS011;4989;48.772;9.154;2023-12-20T11:59:08;3.10;;;1.27;;
9900;SDS011;4989;48.772;9.154;2023-12-20T12:04:23;2.00;;;1.20;;
9900;SDS011;4989;48.772;9.154;2023-12-20T12:09:26;4.57;;;1.17;;
9900;SDS011;4989;48.772;9.154;2023-12-20T12:14:29;4.93;;;1.27;;
9900;SDS011;4989;48.772;9.154;2023-12-20T12:19:32;2.77;;;1.30;;
9900;SDS011;4989;48.772;9.154;2023-12-20T12:24:37;3.73;;;1.30;;
9900;SDS011;4989;48.772;9.154;2023-12-20T12:29:40;2.23;;;1.00;;
9900;SDS011;4989;48.772;9.154;2023-12-20T12:35:02;1.27;;;1.17;;
9900;SDS011;4989;48.772;9.154;2023-12-20T12:40:11;3.77;;;1.30;;
9900;SDS011;4989;48.772;9.154;2023-12-20T12:45:15;5.07;;;1.97;;
9900;SDS011;4989;48.772;9.154;2023-12-20T12:50:18;2.80;;;1.00;;
9900;SDS011;4989;48.772;9.154;2023-12-20T12:55:21;2.27;;;1.10;;
9900;SDS011;4989;48.772;9.154;2023-12-20T13:00:23;2.07;;;1.10;;
9900;SDS011;4989;48.772;9.154;2023-12-20T13:05:27;2.50;;;1.30;;
9900;SDS011;4989;48.772;9.154;2023-12-20T13:10:30;1.33;;;1.20;;
9900;SDS011;4989;48.772;9.154;2023-12-20T13:15:33;1.43;;;0.90;;
9900;SDS011;4989;48.772;9.154;2023-12-20T13:20:39;1.50;;;1.23;;
9900;SDS011;4989;48.772;9.154;2023-12-20T13:25:41;1.57;;;1.30;;
9900;SDS011;4989;48.772;9.154;2023-12-20T13:30:44;2.77;;;1.00;;
9900;SDS011;4989;48.772;9.154;2023-12-20T13:35:47;1.17;;;1.03;;
9900;SDS011;4989;48.772;9.154;2023-12-20T13:40:50;1.57;;;1.03;;
9900;SDS011;4989;48.772;9.154;2023-12-20T13:45:53;1.90;;;1.20;;
9900;SDS011;4989;48.772;9.154;2023-12-20T13:50:55;1.03;;;0.90;;
9900;SDS011;4989;48.772;9.154;2023-12-20T13:55:59;2.60;;;1.20;;
9900;SDS011;4989;48.772;9.154;2023-12-20T14:01:02;1.97;;;1.00;;
9900;SDS011;4989;48.772;9.154;2023-12-20T14:06:05;1.80;;;0.87;;
9900;SDS011;4989;48.772;9.154;2023-12-20T14:11:08;4.57;;;1.00;;
9900;SDS011;4989;48.772;9.154;2023-12-20T14:16:12;0.93;;;0.93;;
9900;SDS011;4989;48.772;9.154;2023-12-20T14:21:16;3.67;;;1.03;;
9900;SDS011;4989;48.772;9.154;2023-12-20T14:26:19;3.73;;;1.13;;
9900;SDS011;4989;48.772;9.154;2023-12-20T14:31:21;2.53;;;1.00;;
9900;SDS011;4989;48.772;9.154;2023-12-20T14:36:26;3.23;;;1.00;;
9900;SDS011;4989;48.772;9.154;2023-12-20T14:41:29;1.57;;;0.90;;
9900;SDS011;4989;48.772;9.154;2023-12-20T14:46:33;0.80;;;0.70;;
9900;SDS011;4989;48.772;9.154;2023-12-20T14:51:35;1.63;;;1.00;;
9900;SDS011;4989;48.772;9.154;2023-12-20T14:56:39;1.77;;;1.00;;
9900;SDS011;4989;48.772;9.154;2023-12-20T15:01:43;1.00;;;1.00;;
9900;SDS011;4989;48.772;9.154;2023-12-20T15:06:46;0.77;;;0.77;;
9900;SDS011;4989;48.772;9.154;2023-12-20T15:11:49;1.17;;;0.83;;
9900;SDS011;4989;48.772;9.154;2023-12-20T15:16:51;1.97;;;1.13;;
9900;SDS011;4989;48.772;9.154;2023-12-20T15:21:54;1.90;;;0.87;;
9900;SDS011;4989;48.772;9.154;2023-12-20T15:26:57;1.10;;;1.00;;
9900;SDS011;4989;48.772;9.154;2023-12-20T15:31:59;0.90;;;0.90;;
9900;SDS011;4989;48.772;9.154;2023-12-20T15:37:02;1.10;;;1.00;;
9900;SDS011;4989;48.772;9.154;2023-12-20T15:42:06;2.97;;;1.20;;
9900;SDS011;4989;48.772;9.154;2023-12-20T15:47:08;1.60;;;0.93;;
9900;SDS011;4989;48.772;9.154;2023-12-20T15:52:11;1.27;;;1.00;;
9900;SDS011;4989;48.772;9.154;2023-12-20T15:57:14;0.80;;;0.77;;
9900;SDS011;4989;48.772;9.154;2023-12-20T16:02:23;1.47;;;0.90;;
9900;SDS011;4989;48.772;9.154;2023-12-20T16:07:25;1.80;;;1.10;;
9900;SDS011;4989;48.772;9.154;2023-12-20T16:12:28;2.93;;;1.07;;
9900;SDS011;4989;48.772;9.154;2023-12-20T16:17:32;1.33;;;1.13;;
9900;SDS011;4989;48.772;9.154;2023-12-20T16:22:36;1.47;;;1.20;;
9900;SDS011;4989;48.772;9.154;2023-12-20T16:27:39;1.73;;;0.97;;
9900;SDS011;4989;48.772;9.154;2023-12-20T16:32:43;4.10;;;1.20;;
9900;SDS011;4989;48.772;9.154;2023-12-20T16:37:46;1.20;;;1.10;;
9900;SDS011;4989;48.772;9.154;2023-12-20T16:42:49;1.13;;;1.03;;
9900;SDS011;4989;48.772;9.154;2023-12-20T16:47:54;3.10;;;1.30;;
9900;SDS011;4989;48.772;9.154;2023-12-20T16:52:57;1.50;;;1.30;;
9900;SDS011;4989;48.772;9.154;2023-12-20T16:58:00;1.97;;;1.27;;
9900;SDS011;4989;48.772;9.154;2023-12-20T17:03:07;1.40;;;1.30;;
9900;SDS011;4989;48.772;9.154;2023-12-20T17:08:10;2.63;;;1.43;;
9900;SDS011;4989;48.772;9.154;2023-12-20T17:13:13;3.47;;;1.70;;
9900;SDS011;4989;48.772;9.154;2023-12-20T17:18:15;1.87;;;1.47;;
9900;SDS011;4989;48.772;9.154;2023-12-20T17:23:18;1.57;;;1.47;;
9900;SDS011;4989;48.772;9.154;2023-12-20T17:28:21;1.30;;;1.17;;
9900;SDS011;4989;48.772;9.154;2023-12-20T17:33:24;1.70;;;1.40;;
9900;SDS011;4989;48.772;9.154;2023-12-20T17:38:27;2.70;;;1.30;;
9900;SDS011;4989;48.772;9.154;2023-12-20T17:43:30;2.33;;;1.20;;
9900;SDS011;4989;48.772;9.154;2023-12-20T17:48:33;2.63;;;1.40;;
9900;SDS011;4989;48.772;9.154;2023-12-20T17:53:36;3.33;;;1.40;;
9900;SDS011;4989;48.772;9.154;2023-12-20T17:58:38;2.53;;;1.30;;
9900;SDS011;4989;48.772;9.154;2023-12-20T18:03:41;1.27;;;1.17;;
9900;SDS011;4989;48.772;9.154;2023-12-20T18:08:44;2.13;;;0.93;;
9900;SDS011;4989;48.772;9.154;2023-12-20T18:13:47;1.20;;;1.17;;
9900;SDS011;4989;48.772;9.154;2023-12-20T18:18:50;0.90;;;0.90;;
9900;SDS011;4989;48.772;9.154;2023-12-20T18:23:53;1.90;;;1.00;;
9900;SDS011;4989;48.772;9.154;2023-12-20T18:29:08;1.00;;;1.00;;
9900;SDS011;4989;48.772;9.154;2023-12-20T18:34:11;1.03;;;0.93;;
9900;SDS011;4989;48.772;9.154;2023-12-20T18:39:14;0.90;;;0.90;;
9900;SDS011;4989;48.772;9.154;2023-12-20T18:44:17;1.57;;;0.73;;
9900;SDS011;4989;48.772;9.154;2023-12-20T18:49:20;1.03;;;0.90;;
9900;SDS011;4989;48.772;9.154;2023-12-20T18:54:23;1.53;;;0.90;;
9900;SDS011;4989;48.772;9.154;2023-12-20T18:59:26;0.80;;;0.80;;
9900;SDS011;4989;48.772;9.154;2023-12-20T19:04:32;1.93;;;1.03;;
9900;SDS011;4989;48.772;9.154;2023-12-20T19:09:39;2.87;;;1.57;;
9900;SDS011;4989;48.772;9.154;2023-12-20T19:14:41;1.10;;;1.00;;
9900;SDS011;4989;48.772;9.154;2023-12-20T19:19:46;2.13;;;1.20;;
9900;SDS011;4989;48.772;9.154;2023-12-20T19:24:49;1.10;;;1.10;;
9900;SDS011;4989;48.772;9.154;2023-12-20T19:29:52;1.40;;;0.97;;
9900;SDS011;4989;48.772;9.154;2023-12-20T19:34:59;3.07;;;1.10;;
9900;SDS011;4989;48.772;9.154;2023-12-20T19:40:02;1.60;;;1.13;;
9900;SDS011;4989;48.772;9.154;2023-12-20T19:45:06;3.40;;;1.47;;
9900;SDS011;4989;48.772;9.154;2023-12-20T19:50:11;2.27;;;1.20;;
9900;SDS011;4989;48.772;9.154;2023-12-20T19:55:15;2.03;;;1.10;;
9900;SDS011;4989;48.772;9.154;2023-12-20T20:00:18;3.00;;;1.30;;
9900;SDS011;4989;48.772;9.154;2023-12-20T20:05:21;1.13;;;1.03;;
9900;SDS011;4989;48.772;9.154;2023-12-20T20:10:27;1.67;;;1.27;;
9900;SDS011;4989;48.772;9.154;2023-12-20T20:15:29;1.57;;;1.10;;
9900;SDS011;4989;48.772;9.154;2023-12-20T20:20:32;1.53;;;1.20;;
9900;SDS011;4989;48.772;9.154;2023-12-20T20:25:35;1.63;;;1.07;;
9900;SDS011;4989;48.772;9.154;2023-12-20T20:30:38;2.03;;;1.40;;
9900;SDS011;4989;48.772;9.154;2023-12-20T20:35:41;2.83;;;1.67;;
9900;SDS011;4989;48.772;9.154;2023-12-20T20:40:43;1.63;;;1.20;;
9900;SDS011;4989;48.772;9.154;2023-12-20T20:45:46;1.00;;;1.00;;
9900;SDS011;4989;48.772;9.154;2023-12-20T20:50:51;1.40;;;1.30;;
9900;SDS011;4989;48.772;9.154;2023-12-20T20:55:56;1.47;;;1.37;;
9900;SDS011;4989;48.772;9.154;2023-12-20T21:01:03;1.20;;;1.10;;
9900;SDS011;4989;48.772;9.154;2023-12-20T21:06:10;1.70;;;1.10;;
9900;SDS011;4989;48.772;9.154;2023-12-20T21:11:13;1.20;;;1.00;;
9900;SDS011;4989;48.772;9.154;2023-12-20T21:16:19;2.43;;;1.20;;
9900;SDS011;4989;48.772;9.154;2023-12-20T21:21:22;3.30;;;1.20;;
9900;SDS011;4989;48.772;9.154;2023-12-20T21:26:25;0.90;;;0.90;;
9900;SDS011;4989;48.772;9.154;2023-12-20T21:31:28;0.93;;;0.87;;
9900;SDS011;4989;48.772;9.154;2023-12-20T21:36:31;1.20;;;1.10;;
9900;SDS011;4989;48.772;9.154;2023-12-20T21:41:33;1.17;;;1.03;;
9900;SDS011;4989;48.772;9.154;2023-12-20T21:46:36;1.80;;;1.20;;
9900;SDS011;4989;48.772;9.154;2023-12-20T21:51:42;1.13;;;0.77;;
9900;SDS011;4989;48.772;9.154;2023-12-20T21:56:44;1.10;;;1.00;;
9900;SDS011;4989;48.772;9.154;2023-12-20T22:01:47;1.60;;;0.70;;
9900;SDS011;4989;48.772;9.154;2023-12-20T22:06:50;1.70;;;1.00;;
9900;SDS011;4989;48.772;9.154;2023-12-20T22:11:52;1.40;;;1.20;;
9900;SDS011;4989;48.772;9.154;2023-12-20T22:16:55;1.20;;;0.77;;
9900;SDS011;4989;48.772;9.154;2023-12-20T22:21:59;1.13;;;1.00;;
9900;SDS011;4989;48.772;9.154;2023-12-20T22:27:02;0.80;;;0.80;;
9900;SDS011;4989;48.772;9.154;2023-12-20T22:32:05;1.00;;;0.80;;
9900;SDS011;4989;48.772;9.154;2023-12-20T22:37:09;2.87;;;0.97;;
9900;SDS011;4989;48.772;9.154;2023-12-20T22:42:12;0.93;;;0.80;;
9900;SDS011;4989;48.772;9.154;2023-12-20T22:47:16;1.43;;;1.00;;
9900;SDS011;4989;48.772;9.154;2023-12-20T23:28:55;1.23;;;1.10;;
9900;SDS011;4989;48.772;9.154;2023-12-20T23:33:58;1.10;;;0.90;;
9900;SDS011;4989;48.772;9.154;2023-12-20T23:39:01;0.70;;;0.70;;
9900;SDS011;4989;48.772;9.154;2023-12-20T23:44:04;1.13;;;0.80;;
9900;SDS011;4989;48.772;9.154;2023-12-20T23:49:07;2.20;;;1.10;;
9900;SDS011;4989;48.772;9.154;2023-12-20T23:54:10;0.73;;;0.73;;
9900;SDS011;4989;48.772;9.154;2023-12-20T23:59:12;1.07;;;0.90;;
